Monday, December 17, 2018, 4:48 AM EST
Back to Local

KORF, Norfolk International Airport

Location: Norfolk, VA, United States Lat: 36.9
Local Time: 4:48 AM EST ( 9:48 GMT) Lon: -76.2
Time Zone: US/Eastern Elev: 26 ft

Show me the last for .
Show Coded

Time T Td Feel RH Dir Speed Gust Alt SLP Vis Weather Sky Remarks
2018-12-17 03:51 44 40 42 85 270° 5 - 29.92 29.91 10 FEW037 None
2018-12-17 02:51 46 39 - 76 - Calm - 29.92 29.92 10 OVC038 None
2018-12-17 01:51 46 39 42 76 320° 7 - 29.93 29.93 10 OVC039 None
2018-12-17 00:51 47 39 39 73 350° 12 23 29.92 29.91 10 OVC033 6-hr Min Temp (1am): 45.0°F
6-hr Max Temp (1am): 48.9°F
2018-12-16 23:51 46 39 41 76 330° 10 - 29.92 29.92 10 OVC035 24-hr Min Temp (12am): 45.0°F
24-hr Max Temp (12am): 57.0°F
2018-12-16 22:51 45 40 41 82 310° 8 - 29.93 29.93 10 FEW038 None
2018-12-16 21:51 46 41 43 82 320° 6 - 29.93 29.93 10 BKN065 None
2018-12-16 20:51 47 43 44 86 320° 7 - 29.91 29.91 10 OVC060 None
2018-12-16 20:35 47 43 44 86 290° 6 - 29.91 - 10 FEW015 OVC065 None
2018-12-16 19:51 48 44 46 86 Variable 5 - 29.89 29.89 10 BKN016 OVC060 None
2018-12-16 18:51 49 45 45 86 280° 8 - 29.88 29.88 10 OVC030 6-hr Min Temp (7pm): 48.9°F
6-hr Max Temp (7pm): 54.0°F
2018-12-16 17:51 50 46 48 86 Variable 6 - 29.86 29.85 10 SCT015 OVC027 None
2018-12-16 17:24 50 46 47 86 290° 8 - 29.84 - 10 BKN017 BKN021 OVC038 None
2018-12-16 17:15 50 46 47 86 300° 7 - 29.84 - 10 FEW015 SCT021 OVC037 None
2018-12-16 17:08 50 47 47 89 270° 7 - 29.83 - 10 BKN021 OVC037 None
2018-12-16 17:01 50 46 47 86 280° 8 - 29.83 - 10 SCT021 OVC037 None
2018-12-16 16:51 50 46 47 86 270° 7 - 29.83 29.83 10 BKN021 OVC036 None
2018-12-16 15:51 52 48 - 86 290° 10 - 29.80 29.80 10 SCT014 OVC020 None
2018-12-16 15:44 52 48 - 86 Variable 7 - 29.80 - 10 BKN014 OVC022 None
2018-12-16 14:51 53 48 - 82 260° 14 18 29.79 29.79 10 OVC021 None
2018-12-16 13:51 53 48 - 82 250° 10 20 29.78 29.77 10 BKN018 OVC026 None
2018-12-16 12:51 53 49 - 85 240° 14 21 29.79 29.78 10 BKN016 BKN022 OVC037 6-hr Precip Total (1pm): 0.00"
6-hr Min Temp (1pm): 48.0°F
6-hr Max Temp (1pm): 53.1°F
2018-12-16 12:28 53 49 - 85 240° 10 18 29.79 - 10 FEW016 BKN028 OVC050 None
2018-12-16 11:51 53 49 - 85 240° 9 - 29.80 29.80 10 BKN030 BKN041 BKN060 1-hr Precip Total: Trace
2018-12-16 10:51 53 50 - 89 250° 7 - 29.83 29.83 10 FEW014 OVC050 None
2018-12-16 09:51 53 50 - 89 210° 13 - 29.85 29.85 10 OVC055 None
2018-12-16 09:26 53 51 - 92 210° 10 - 29.86 - 10 SCT008 SCT022 OVC055 None
2018-12-16 09:13 52 51 - 96 200° 9 - 29.86 - 10 BKN010 BKN012 OVC020 None
2018-12-16 09:06 52 50 - 92 210° 9 - 29.87 - 10 BKN009 BKN012 OVC020 None
2018-12-16 08:51 52 50 - 92 210° 8 - 29.87 29.86 10 BKN011 OVC017 None
2018-12-16 08:42 51 50 - 96 200° 9 - 29.86 - 10 OVC015 None
2018-12-16 08:05 50 49 45 96 210° 14 - 29.87 - 10 BKN012 None
2018-12-16 07:51 49 48 45 96 210° 9 - 29.87 29.87 10 FEW012 None
2018-12-16 07:15 50 48 46 92 220° 9 - 29.87 - 10 SCT012 BKN045 None
2018-12-16 06:51 50 49 47 96 230° 8 - 29.87 29.87 10 OVC012 24-hr Precip Total (7am): 0.21"
6-hr Min Temp (7am): 46.9°F
6-hr Max Temp (7am): 55.0°F
2018-12-16 06:37 49 48 45 96 220° 10 - 29.87 - 10 BKN011 None
2018-12-16 05:51 50 48 47 92 230° 7 - 29.86 29.86 10 SCT050 None
2018-12-16 05:36 50 48 47 92 220° 7 - 29.87 - 10 SCT012 None
2018-12-16 04:51 52 49 - 89 260° 9 - 29.89 29.88 10 OVC013 None

Support USWX by starting your Amazon purchase here.